DAL2426 KLAX-KMSP
Flight info
| Callsign | DAL2426 |
|---|---|
| Flight time | N/A |
| Altitude | 37000 |
| Route | ORCKA5 LAS BAWER LARVE EKR BFF SSWAN TORGY4 |
| Aircraft | A20N/M-SDE2E3FGHIRWXY/LB1 |
Departure
| Time | 2026-04-24 03:11 |
|---|---|
| Airport | Los Angeles International Airport (KLAX) |
Arrival
| Time | N/A |
|---|---|
| Airport | Minneapolis–Saint Paul International Airport / Wold–Chamberlain Field (KMSP) |
| Time | Latitude | Longitude | Altitude | Speed | Heading |
|---|---|---|---|---|---|
| 2026-04-24 02:50 | 33.94046 | -118.40738 | 126 ft | 0 kts | 80° |
| 2026-04-24 02:58 | 33.94044 | -118.40749 | 120 ft | 2 kts | 80° |
| 2026-04-24 02:59 | 33.94041 | -118.40769 | 123 ft | 2 kts | 80° |
| 2026-04-24 02:59 | 33.94038 | -118.40789 | 121 ft | 2 kts | 80° |
| 2026-04-24 02:59 | 33.94035 | -118.40808 | 124 ft | 2 kts | 81° |
| 2026-04-24 02:59 | 33.94040 | -118.40825 | 122 ft | 2 kts | 176° |
| 2026-04-24 03:00 | 33.94048 | -118.40825 | 123 ft | 0 kts | 176° |
| 2026-04-24 03:04 | 33.94045 | -118.40825 | 126 ft | 2 kts | 176° |
| 2026-04-24 03:04 | 33.94021 | -118.40823 | 123 ft | 5 kts | 174° |
| 2026-04-24 03:04 | 33.93977 | -118.40817 | 124 ft | 8 kts | 173° |
| 2026-04-24 03:04 | 33.93915 | -118.40805 | 124 ft | 8 kts | 162° |
| 2026-04-24 03:05 | 33.93869 | -118.40768 | 124 ft | 8 kts | 144° |
| 2026-04-24 03:05 | 33.93832 | -118.40735 | 124 ft | 7 kts | 136° |
| 2026-04-24 03:05 | 33.93811 | -118.40681 | 124 ft | 8 kts | 98° |
| 2026-04-24 03:05 | 33.93815 | -118.40609 | 126 ft | 9 kts | 83° |
| 2026-04-24 03:06 | 33.93824 | -118.40523 | 126 ft | 11 kts | 83° |
| 2026-04-24 03:06 | 33.93837 | -118.40396 | 124 ft | 19 kts | 83° |
| 2026-04-24 03:06 | 33.93856 | -118.40220 | 124 ft | 24 kts | 83° |
| 2026-04-24 03:06 | 33.93876 | -118.40027 | 126 ft | 21 kts | 83° |
| 2026-04-24 03:07 | 33.93892 | -118.39871 | 125 ft | 17 kts | 82° |
| 2026-04-24 03:07 | 33.93904 | -118.39740 | 125 ft | 14 kts | 83° |
| 2026-04-24 03:07 | 33.93915 | -118.39635 | 125 ft | 11 kts | 83° |
| 2026-04-24 03:07 | 33.93924 | -118.39551 | 125 ft | 10 kts | 83° |
| 2026-04-24 03:08 | 33.93934 | -118.39450 | 124 ft | 14 kts | 83° |
| 2026-04-24 03:08 | 33.93965 | -118.39155 | 122 ft | 20 kts | 82° |
| 2026-04-24 03:08 | 33.93981 | -118.38992 | 125 ft | 19 kts | 82° |
| 2026-04-24 03:09 | 33.93997 | -118.38830 | 125 ft | 21 kts | 84° |
| 2026-04-24 03:09 | 33.94017 | -118.38647 | 124 ft | 22 kts | 83° |
| 2026-04-24 03:09 | 33.94034 | -118.38477 | 125 ft | 18 kts | 83° |
| 2026-04-24 03:09 | 33.94040 | -118.38356 | 122 ft | 2 kts | 107° |
| 2026-04-24 03:10 | 33.94011 | -118.38324 | 121 ft | 13 kts | 157° |
| 2026-04-24 03:10 | 33.93954 | -118.38344 | 122 ft | 6 kts | 256° |
| 2026-04-24 03:11 | 33.93949 | -118.38381 | 125 ft | 19 kts | 262° |
| 2026-04-24 03:11 | 33.93892 | -118.38921 | 126 ft | 111 kts | 262° |
| 2026-04-24 03:11 | 33.93759 | -118.40179 | 290 ft | 184 kts | 262° |
| 2026-04-24 03:11 | 33.93611 | -118.41869 | 1105 ft | 221 kts | 264° |
| 2026-04-24 03:12 | 33.93488 | -118.43890 | 2015 ft | 259 kts | 267° |
| 2026-04-24 03:12 | 33.93358 | -118.46028 | 3010 ft | 249 kts | 266° |
| 2026-04-24 03:12 | 33.93239 | -118.48121 | 4012 ft | 258 kts | 265° |
| 2026-04-24 03:12 | 33.92799 | -118.50270 | 5091 ft | 266 kts | 249° |
| 2026-04-24 03:13 | 33.91812 | -118.52198 | 6069 ft | 275 kts | 227° |
| 2026-04-24 03:13 | 33.90272 | -118.53543 | 7185 ft | 275 kts | 201° |
| 2026-04-24 03:13 | 33.88383 | -118.53738 | 8425 ft | 284 kts | 172° |
| 2026-04-24 03:13 | 33.86528 | -118.52771 | 8967 ft | 301 kts | 141° |
| 2026-04-24 03:14 | 33.85321 | -118.50746 | 9526 ft | 306 kts | 112° |
| 2026-04-24 03:14 | 33.85102 | -118.48160 | 9626 ft | 307 kts | 78° |
| 2026-04-24 03:14 | 33.85951 | -118.45902 | 9930 ft | 303 kts | 49° |
| 2026-04-24 03:14 | 33.87656 | -118.44399 | 10354 ft | 316 kts | 19° |
| 2026-04-24 03:15 | 33.89889 | -118.43815 | 11025 ft | 334 kts | 4° |
| 2026-04-24 03:15 | 33.92227 | -118.43456 | 11856 ft | 351 kts | 6° |
| 2026-04-24 03:15 | 33.94577 | -118.42429 | 12783 ft | 372 kts | 27° |
| 2026-04-24 03:15 | 33.96480 | -118.40250 | 13623 ft | 396 kts | 53° |
| 2026-04-24 03:16 | 33.97831 | -118.37268 | 14277 ft | 415 kts | 62° |
| 2026-04-24 03:16 | 33.99086 | -118.34064 | 14626 ft | 425 kts | 62° |
| 2026-04-24 03:16 | 34.00494 | -118.30929 | 14834 ft | 427 kts | 57° |
| 2026-04-24 03:16 | 34.02032 | -118.27866 | 14924 ft | 426 kts | 56° |
| 2026-04-24 03:17 | 34.03617 | -118.24876 | 14960 ft | 425 kts | 54° |
| 2026-04-24 03:17 | 34.05247 | -118.21900 | 14976 ft | 425 kts | 54° |
| 2026-04-24 03:17 | 34.06900 | -118.18947 | 14994 ft | 424 kts | 53° |
| 2026-04-24 03:17 | 34.08574 | -118.16010 | 15184 ft | 425 kts | 53° |
| 2026-04-24 03:18 | 34.10242 | -118.13108 | 15955 ft | 427 kts | 53° |
| 2026-04-24 03:18 | 34.11930 | -118.10122 | 16841 ft | 434 kts | 53° |
| 2026-04-24 03:18 | 34.13634 | -118.07077 | 17687 ft | 442 kts | 53° |
| 2026-04-24 03:18 | 34.15360 | -118.03986 | 18483 ft | 449 kts | 53° |
| 2026-04-24 03:19 | 34.17126 | -118.00829 | 19267 ft | 454 kts | 53° |
| 2026-04-24 03:19 | 34.18906 | -117.97652 | 20037 ft | 459 kts | 53° |
| 2026-04-24 03:19 | 34.20710 | -117.94436 | 20746 ft | 465 kts | 53° |
| 2026-04-24 03:19 | 34.22532 | -117.91195 | 21489 ft | 469 kts | 53° |
| 2026-04-24 03:20 | 34.24385 | -117.87902 | 22234 ft | 474 kts | 53° |
| 2026-04-24 03:20 | 34.26257 | -117.84583 | 22936 ft | 479 kts | 52° |
| 2026-04-24 03:20 | 34.28146 | -117.81239 | 23623 ft | 484 kts | 52° |
| 2026-04-24 03:20 | 34.30054 | -117.77866 | 24205 ft | 489 kts | 52° |
| 2026-04-24 03:21 | 34.31986 | -117.74459 | 24773 ft | 493 kts | 52° |
| 2026-04-24 03:21 | 34.33948 | -117.71030 | 25351 ft | 498 kts | 52° |
| 2026-04-24 03:21 | 34.35952 | -117.67578 | 25909 ft | 502 kts | 51° |
| 2026-04-24 03:21 | 34.37976 | -117.64120 | 26452 ft | 506 kts | 51° |
| 2026-04-24 03:22 | 34.40021 | -117.60641 | 27198 ft | 505 kts | 51° |
| 2026-04-24 03:22 | 34.42065 | -117.57176 | 27949 ft | 505 kts | 51° |
| 2026-04-24 03:22 | 34.44099 | -117.53732 | 28692 ft | 504 kts | 51° |
| 2026-04-24 03:22 | 34.46145 | -117.50274 | 29455 ft | 503 kts | 51° |
| 2026-04-24 03:23 | 34.48184 | -117.46829 | 30184 ft | 502 kts | 51° |
| 2026-04-24 03:23 | 34.50225 | -117.43386 | 30811 ft | 502 kts | 50° |
| 2026-04-24 03:23 | 34.52263 | -117.39951 | 31426 ft | 501 kts | 50° |
| 2026-04-24 03:23 | 34.54287 | -117.36543 | 32034 ft | 500 kts | 51° |
| 2026-04-24 03:24 | 34.56327 | -117.33107 | 32627 ft | 500 kts | 51° |
| 2026-04-24 03:24 | 34.58360 | -117.29682 | 33239 ft | 500 kts | 51° |
| 2026-04-24 03:24 | 34.60368 | -117.26298 | 33821 ft | 499 kts | 51° |
| 2026-04-24 03:24 | 34.62396 | -117.22877 | 34322 ft | 500 kts | 51° |
| 2026-04-24 03:25 | 34.64449 | -117.19407 | 34765 ft | 501 kts | 50° |
| 2026-04-24 03:25 | 34.66458 | -117.16009 | 35192 ft | 502 kts | 50° |
| 2026-04-24 03:25 | 34.68496 | -117.12558 | 35617 ft | 503 kts | 50° |
| 2026-04-24 03:25 | 34.70535 | -117.09106 | 36031 ft | 504 kts | 50° |
| 2026-04-24 03:26 | 34.72584 | -117.05635 | 36443 ft | 505 kts | 50° |
| 2026-04-24 03:26 | 34.74615 | -117.02188 | 36731 ft | 498 kts | 50° |
| 2026-04-24 03:26 | 34.76634 | -116.98762 | 36858 ft | 500 kts | 50° |
| 2026-04-24 03:27 | 34.80727 | -116.91827 | 36939 ft | 507 kts | 50° |
| 2026-04-24 03:27 | 34.84831 | -116.84864 | 36951 ft | 504 kts | 50° |
| 2026-04-24 03:28 | 34.88885 | -116.77976 | 36954 ft | 502 kts | 50° |
| 2026-04-24 03:28 | 34.93271 | -116.71288 | 36953 ft | 501 kts | 44° |
| 2026-04-24 03:29 | 34.97867 | -116.65018 | 36944 ft | 499 kts | 43° |
| 2026-04-24 03:29 | 35.02550 | -116.58769 | 36941 ft | 498 kts | 42° |
| 2026-04-24 03:30 | 35.07242 | -116.52547 | 36944 ft | 498 kts | 42° |
| 2026-04-24 03:30 | 35.11941 | -116.46326 | 36941 ft | 499 kts | 42° |
| 2026-04-24 03:31 | 35.16649 | -116.40090 | 36941 ft | 498 kts | 42° |
| 2026-04-24 03:31 | 35.21336 | -116.33874 | 36943 ft | 498 kts | 42° |
| 2026-04-24 03:32 | 35.26036 | -116.27635 | 36935 ft | 498 kts | 42° |
| 2026-04-24 03:32 | 35.30734 | -116.21388 | 36925 ft | 498 kts | 42° |
| 2026-04-24 03:33 | 35.35401 | -116.15170 | 36935 ft | 498 kts | 42° |
| 2026-04-24 03:33 | 35.40119 | -116.08874 | 36948 ft | 499 kts | 42° |
| 2026-04-24 03:34 | 35.44788 | -116.02635 | 36956 ft | 499 kts | 42° |
| 2026-04-24 03:34 | 35.49472 | -115.96363 | 36966 ft | 499 kts | 42° |
| 2026-04-24 03:35 | 35.54154 | -115.90082 | 36970 ft | 498 kts | 42° |
| 2026-04-24 03:35 | 35.58840 | -115.83791 | 36978 ft | 499 kts | 42° |
| 2026-04-24 03:36 | 35.63495 | -115.77500 | 36982 ft | 500 kts | 43° |
| 2026-04-24 03:36 | 35.68137 | -115.71141 | 36988 ft | 499 kts | 43° |
| 2026-04-24 03:37 | 35.72765 | -115.64771 | 36984 ft | 500 kts | 43° |
| 2026-04-24 03:37 | 35.77392 | -115.58390 | 36985 ft | 500 kts | 43° |
| 2026-04-24 03:38 | 35.82027 | -115.51989 | 36993 ft | 501 kts | 43° |
| 2026-04-24 03:38 | 35.86774 | -115.45443 | 36991 ft | 522 kts | 43° |
| 2026-04-24 03:38 | 35.89224 | -115.42061 | 36987 ft | 533 kts | 43° |
| 2026-04-24 03:39 | 35.91711 | -115.38623 | 36981 ft | 538 kts | 43° |
| 2026-04-24 03:39 | 35.94135 | -115.35247 | 36974 ft | 513 kts | 43° |
| 2026-04-24 03:39 | 35.96447 | -115.32010 | 36974 ft | 495 kts | 43° |
| 2026-04-24 03:40 | 36.01002 | -115.25653 | 36972 ft | 496 kts | 43° |
| 2026-04-24 03:40 | 36.05616 | -115.19234 | 36945 ft | 504 kts | 45° |
| 2026-04-24 03:41 | 36.09866 | -115.12390 | 36943 ft | 505 kts | 49° |
| 2026-04-24 03:41 | 36.13938 | -115.05304 | 36944 ft | 505 kts | 50° |
| 2026-04-24 03:42 | 36.17965 | -114.98171 | 36884 ft | 506 kts | 51° |
| 2026-04-24 03:42 | 36.21308 | -114.92210 | 36879 ft | 506 kts | 51° |
| 2026-04-24 03:43 | 36.25316 | -114.85035 | 36888 ft | 506 kts | 51° |
| 2026-04-24 03:43 | 36.29315 | -114.77861 | 36881 ft | 506 kts | 51° |
| 2026-04-24 03:44 | 36.33253 | -114.70786 | 36849 ft | 507 kts | 51° |
| 2026-04-24 03:44 | 36.37266 | -114.63563 | 36846 ft | 506 kts | 51° |
| 2026-04-24 03:45 | 36.41253 | -114.56368 | 36847 ft | 506 kts | 51° |
| 2026-04-24 03:45 | 36.45242 | -114.49155 | 36849 ft | 507 kts | 51° |
| 2026-04-24 03:46 | 36.49239 | -114.41917 | 36857 ft | 507 kts | 51° |
| 2026-04-24 03:46 | 36.53220 | -114.34691 | 36856 ft | 507 kts | 51° |
| 2026-04-24 03:47 | 36.57203 | -114.27443 | 36864 ft | 508 kts | 51° |
| 2026-04-24 03:47 | 36.61161 | -114.20223 | 36864 ft | 508 kts | 51° |
| 2026-04-24 03:48 | 36.65142 | -114.12952 | 36876 ft | 507 kts | 51° |
| 2026-04-24 03:48 | 36.69105 | -114.05693 | 36876 ft | 506 kts | 51° |
| 2026-04-24 03:49 | 36.73060 | -113.98435 | 36882 ft | 506 kts | 51° |
| 2026-04-24 03:49 | 36.77028 | -113.91143 | 36894 ft | 510 kts | 51° |
| 2026-04-24 03:50 | 36.81004 | -113.83817 | 36900 ft | 508 kts | 51° |
| 2026-04-24 03:50 | 36.84967 | -113.76494 | 36912 ft | 510 kts | 51° |
| 2026-04-24 03:51 | 36.88925 | -113.69171 | 36908 ft | 508 kts | 51° |
| 2026-04-24 03:51 | 36.92876 | -113.61840 | 36940 ft | 509 kts | 51° |
| 2026-04-24 03:52 | 36.96827 | -113.54494 | 36943 ft | 509 kts | 51° |
| 2026-04-24 03:52 | 37.00770 | -113.47147 | 36947 ft | 508 kts | 51° |
| 2026-04-24 03:53 | 37.04711 | -113.39786 | 36949 ft | 509 kts | 51° |
| 2026-04-24 03:53 | 37.08636 | -113.32441 | 36933 ft | 510 kts | 51° |
| 2026-04-24 03:54 | 37.12573 | -113.25058 | 36923 ft | 509 kts | 51° |
| 2026-04-24 03:54 | 37.16498 | -113.17680 | 36977 ft | 510 kts | 51° |
| 2026-04-24 03:55 | 37.20435 | -113.10263 | 36969 ft | 510 kts | 51° |
| 2026-04-24 03:55 | 37.24354 | -113.02864 | 36958 ft | 509 kts | 51° |
| 2026-04-24 03:56 | 37.28255 | -112.95480 | 36939 ft | 509 kts | 51° |
| 2026-04-24 03:56 | 37.32164 | -112.88066 | 36929 ft | 510 kts | 51° |
| 2026-04-24 03:57 | 37.36079 | -112.80623 | 36932 ft | 511 kts | 51° |
| 2026-04-24 03:57 | 37.39986 | -112.73178 | 36939 ft | 510 kts | 51° |
| 2026-04-24 03:58 | 37.43890 | -112.65722 | 36943 ft | 510 kts | 51° |
| 2026-04-24 03:58 | 37.47797 | -112.58244 | 36944 ft | 511 kts | 51° |
| 2026-04-24 03:59 | 37.51699 | -112.50758 | 36952 ft | 511 kts | 51° |
| 2026-04-24 03:59 | 37.55586 | -112.43280 | 36996 ft | 511 kts | 51° |
| 2026-04-24 04:00 | 37.59476 | -112.35775 | 37039 ft | 511 kts | 52° |
| 2026-04-24 04:00 | 37.63461 | -112.28370 | 37090 ft | 508 kts | 47° |
| 2026-04-24 04:01 | 37.67752 | -112.21264 | 37121 ft | 508 kts | 46° |
| 2026-04-24 04:01 | 37.72094 | -112.14254 | 37128 ft | 506 kts | 46° |
| 2026-04-24 04:02 | 37.76417 | -112.07314 | 37121 ft | 506 kts | 46° |
| 2026-04-24 04:02 | 37.80761 | -112.00337 | 37087 ft | 507 kts | 46° |
| 2026-04-24 04:03 | 37.85140 | -111.93292 | 37043 ft | 507 kts | 46° |
| 2026-04-24 04:03 | 37.89491 | -111.86274 | 36997 ft | 506 kts | 46° |
| 2026-04-24 04:04 | 37.93826 | -111.79266 | 36946 ft | 505 kts | 46° |
| 2026-04-24 04:04 | 37.98157 | -111.72247 | 36950 ft | 507 kts | 46° |
| 2026-04-24 04:05 | 38.02499 | -111.65197 | 36951 ft | 505 kts | 46° |
| 2026-04-24 04:05 | 38.06788 | -111.58216 | 36948 ft | 506 kts | 46° |
| 2026-04-24 04:06 | 38.11116 | -111.51158 | 36944 ft | 507 kts | 46° |
| 2026-04-24 04:06 | 38.15471 | -111.44040 | 36941 ft | 506 kts | 46° |
| 2026-04-24 04:07 | 38.19757 | -111.37018 | 36937 ft | 506 kts | 46° |
| 2026-04-24 04:07 | 38.24073 | -111.29930 | 36930 ft | 506 kts | 46° |
| 2026-04-24 04:08 | 38.28375 | -111.22850 | 36924 ft | 506 kts | 47° |
| 2026-04-24 04:08 | 38.32676 | -111.15753 | 36923 ft | 506 kts | 47° |
| 2026-04-24 04:09 | 38.36984 | -111.08634 | 36940 ft | 507 kts | 47° |
| 2026-04-24 04:09 | 38.41277 | -111.01521 | 36956 ft | 506 kts | 47° |
| 2026-04-24 04:10 | 38.45556 | -110.94414 | 36976 ft | 506 kts | 47° |
| 2026-04-24 04:10 | 38.49817 | -110.87324 | 36987 ft | 506 kts | 47° |
| 2026-04-24 04:11 | 38.56250 | -110.76591 | 36991 ft | 506 kts | 47° |
| 2026-04-24 04:11 | 38.57756 | -110.74072 | 36987 ft | 506 kts | 47° |